Time;durP1;ratioP1;P1;durP2;ratioP2;P2;SDS_P1;SDS_P2;PMS_P1;PMS_P2;Temp;Humidity;BMP_temperature;BMP_pressure;BME280_temperature;BME280_humidity;BME280_pressure;Samples;Min_cycle;Max_cycle;Signal;HPM_P1;HPM_P2
2023/12/19 00:00:41;;;;;;;4.82;4.43;;;3.10;99.90;;;;;;6318116;22;20209;-88
2023/12/19 00:03:09;;;;;;;3.53;2.97;;;3.00;99.90;;;;;;6320172;22;20170;-83
2023/12/19 00:05:35;;;;;;;3.80;3.60;;;3.00;99.90;;;;;;6323252;22;20177;-84
2023/12/19 00:08:06;;;;;;;2.85;2.75;;;3.10;99.90;;;;;;6328365;22;20234;-84
2023/12/19 00:10:32;;;;;;;2.08;1.98;;;3.20;99.90;;;;;;6329248;22;20238;-83
2023/12/19 00:13:03;;;;;;;1.88;1.75;;;3.30;99.90;;;;;;6304868;22;20262;-85
2023/12/19 00:15:36;;;;;;;2.10;2.00;;;3.60;99.90;;;;;;6330590;22;20170;-86
2023/12/19 00:18:03;;;;;;;2.88;2.75;;;3.60;99.90;;;;;;6304861;22;20155;-85
2023/12/19 00:20:30;;;;;;;6.82;4.82;;;3.60;99.90;;;;;;6304464;22;20193;-83
2023/12/19 00:22:58;;;;;;;1.55;1.50;;;3.60;99.90;;;;;;6327734;22;20362;-84
2023/12/19 00:25:26;;;;;;;4.63;3.67;;;3.60;99.90;;;;;;6299866;22;20178;-85
2023/12/19 00:27:53;;;;;;;3.55;3.28;;;3.50;99.90;;;;;;6303534;22;20185;-82
2023/12/19 00:30:21;;;;;;;1.90;1.80;;;3.70;99.90;;;;;;6332297;22;20169;-87
2023/12/19 00:32:49;;;;;;;1.25;1.25;;;3.60;99.90;;;;;;6307223;22;20166;-85
2023/12/19 00:35:17;;;;;;;2.65;2.45;;;3.60;99.90;;;;;;6334044;22;20228;-86
2023/12/19 00:37:44;;;;;;;1.35;1.35;;;3.70;99.90;;;;;;6333785;22;20162;-83
2023/12/19 00:40:13;;;;;;;1.35;1.35;;;3.80;99.90;;;;;;6306450;22;20182;-88
2023/12/19 00:42:42;;;;;;;1.30;1.30;;;3.80;99.90;;;;;;6333199;22;20162;-85
2023/12/19 00:45:10;;;;;;;3.33;3.17;;;3.90;99.90;;;;;;6147892;22;20203;-86
2023/12/19 00:47:39;;;;;;;1.77;1.67;;;4.00;99.90;;;;;;6177333;22;20169;-84
2023/12/19 00:50:10;;;;;;;3.90;3.63;;;3.90;99.90;;;;;;6177721;22;20185;-86
2023/12/19 00:52:37;;;;;;;1.35;1.35;;;3.80;99.90;;;;;;6177637;22;20173;-85
2023/12/19 00:55:05;;;;;;;0.88;0.85;;;3.80;99.90;;;;;;6175000;22;20228;-88
2023/12/19 00:57:33;;;;;;;1.40;1.35;;;3.80;99.90;;;;;;6171988;23;20229;-89
2023/12/19 00:59:59;;;;;;;2.08;1.88;;;3.90;99.90;;;;;;6169778;23;20247;-85
2023/12/19 01:02:31;;;;;;;4.45;4.07;;;3.90;99.90;;;;;;6173951;22;20170;-85
2023/12/19 01:07:40;;;;;;;5.95;4.03;;;3.90;99.90;;;;;;6316890;22;20206;-87
2023/12/19 01:10:10;;;;;;;1.88;1.77;;;4.00;99.90;;;;;;6323429;22;20178;-88
2023/12/19 01:12:38;;;;;;;1.67;1.58;;;4.10;99.90;;;;;;6325142;22;20167;-84
2023/12/19 01:15:07;;;;;;;2.78;2.67;;;4.10;99.90;;;;;;6301400;22;20224;-86
2023/12/19 01:20:11;;;;;;;1.90;1.85;;;4.50;99.90;;;;;;6117263;22;20184;31
2023/12/19 01:22:40;;;;;;;1.63;1.52;;;4.60;99.90;;;;;;6174254;22;20171;-87
2023/12/19 01:25:09;;;;;;;4.75;4.35;;;4.70;99.90;;;;;;6169126;23;20506;-87
2023/12/19 01:27:37;;;;;;;2.70;2.53;;;4.60;99.90;;;;;;6165492;23;20185;-90
2023/12/19 01:30:06;;;;;;;1.88;1.77;;;4.70;99.90;;;;;;6135862;23;20248;-88
2023/12/19 01:32:33;;;;;;;2.85;2.65;;;5.00;99.90;;;;;;6166954;23;20174;-88
2023/12/19 01:35:02;;;;;;;1.88;1.67;;;5.00;99.90;;;;;;6171999;23;20217;-86
2023/12/19 01:37:29;;;;;;;1.63;1.52;;;4.80;99.90;;;;;;6170633;23;20208;-85
2023/12/19 01:39:56;;;;;;;2.35;2.25;;;4.70;99.90;;;;;;6168328;23;20177;-88
2023/12/19 01:42:25;;;;;;;3.30;2.90;;;4.70;99.90;;;;;;6166044;23;20186;-86
2023/12/19 01:45:14;;;;;;;3.00;2.80;;;4.80;99.90;;;;;;6165174;23;20201;-89
2023/12/19 01:47:44;;;;;;;1.30;1.20;;;4.70;99.90;;;;;;6164494;23;20191;-88
2023/12/19 01:50:16;;;;;;;2.17;2.08;;;4.60;99.90;;;;;;6163375;22;20209;-89
2023/12/19 01:52:52;;;;;;;2.03;1.92;;;4.60;99.90;;;;;;6161778;23;20185;-87
2023/12/19 01:58:02;;;;;;;3.58;2.20;;;4.70;99.90;;;;;;6282976;22;20198;-87
2023/12/19 02:05:46;;;;;;;1.70;1.63;;;4.70;99.90;;;;;;6199379;22;20219;-84
2023/12/19 02:08:13;;;;;;;1.05;1.05;;;4.70;99.90;;;;;;6325099;22;20173;-87
2023/12/19 02:10:45;;;;;;;1.73;1.67;;;4.60;99.90;;;;;;6330854;22;20181;-87
2023/12/19 02:34:39;;;;;;;1.38;1.38;;;4.50;99.90;;;;;;6162903;23;20209;-85
2023/12/19 02:37:09;;;;;;;2.97;2.33;;;4.70;99.90;;;;;;6161026;23;20504;-86
2023/12/19 02:39:36;;;;;;;2.22;2.03;;;4.60;99.90;;;;;;6168199;23;20228;-87
2023/12/19 02:42:04;;;;;;;1.80;1.70;;;4.60;99.90;;;;;;6166975;23;20182;-87
2023/12/19 02:44:31;;;;;;;6.40;3.28;;;4.60;99.90;;;;;;6217753;22;20210;-87
2023/12/19 02:46:58;;;;;;;1.75;1.65;;;4.80;99.90;;;;;;6313493;22;20202;-85
2023/12/19 02:49:25;;;;;;;1.73;1.63;;;4.70;99.90;;;;;;6326214;22;20162;-86
2023/12/19 02:51:56;;;;;;;1.77;1.67;;;4.50;99.90;;;;;;6301158;22;20186;-86
2023/12/19 02:54:24;;;;;;;0.77;0.77;;;4.40;99.90;;;;;;6299040;22;20202;-87
2023/12/19 03:02:19;;;;;;;2.78;2.58;;;4.20;99.90;;;;;;6185583;22;20211;-87
2023/12/19 03:04:46;;;;;;;2.55;2.35;;;4.20;99.90;;;;;;6297327;22;20258;-87
2023/12/19 03:07:13;;;;;;;1.13;1.13;;;4.10;99.90;;;;;;6319106;22;20189;-87
2023/12/19 03:09:40;;;;;;;1.00;1.00;;;4.20;99.90;;;;;;6319986;22;20181;-88
2023/12/19 03:12:09;;;;;;;1.77;1.70;;;4.10;99.90;;;;;;6331312;22;20163;-87
2023/12/19 03:14:38;;;;;;;1.25;1.25;;;4.40;99.90;;;;;;6334918;22;20182;-87
2023/12/19 03:17:06;;;;;;;2.08;1.60;;;4.30;99.90;;;;;;6308764;22;20158;-85
2023/12/19 03:19:33;;;;;;;1.73;1.70;;;4.40;99.90;;;;;;6306641;22;20162;-85
2023/12/19 03:22:00;;;;;;;3.50;3.40;;;4.40;99.90;;;;;;6321437;22;20182;-87
2023/12/19 03:24:28;;;;;;;2.90;1.90;;;4.40;99.90;;;;;;6290928;22;20552;-88
2023/12/19 03:26:56;;;;;;;1.58;1.50;;;4.40;99.90;;;;;;6316704;22;20221;-87
2023/12/19 03:29:22;;;;;;;0.88;0.88;;;4.40;99.90;;;;;;6289885;22;20205;-88
2023/12/19 03:31:50;;;;;;;2.80;2.55;;;4.40;99.90;;;;;;6315380;22;20184;-87
2023/12/19 03:34:18;;;;;;;0.70;0.70;;;4.40;99.90;;;;;;6315509;22;20274;-87
2023/12/19 03:36:45;;;;;;;3.90;2.67;;;4.40;99.90;;;;;;6287048;22;20230;-85
2023/12/19 03:39:13;;;;;;;1.50;1.40;;;4.20;99.90;;;;;;6316943;22;20174;-88
2023/12/19 03:41:44;;;;;;;2.05;1.95;;;4.20;99.90;;;;;;6321208;22;20166;-86
2023/12/19 03:44:32;;;;;;;6.75;4.78;;;4.30;99.90;;;;;;6300678;22;20166;-87
2023/12/19 03:46:59;;;;;;;1.02;1.02;;;4.20;99.90;;;;;;6319626;22;20170;-87
2023/12/19 03:49:27;;;;;;;2.15;1.40;;;4.20;99.90;;;;;;6306046;22;20210;-90
2023/12/19 03:51:56;;;;;;;0.60;0.60;;;4.10;99.90;;;;;;6320521;22;20177;-82
2023/12/19 03:54:26;;;;;;;1.20;1.20;;;4.10;99.90;;;;;;6316927;22;20402;-88
2023/12/19 03:56:54;;;;;;;1.77;1.77;;;4.10;99.90;;;;;;6315970;22;20236;-87
2023/12/19 03:59:23;;;;;;;2.58;2.30;;;4.00;99.90;;;;;;6315159;22;20178;-86
2023/12/19 04:01:51;;;;;;;1.10;0.95;;;4.00;99.90;;;;;;6314106;22;20216;-87
2023/12/19 04:04:19;;;;;;;2.05;1.95;;;3.90;99.90;;;;;;6318003;22;20204;-87
2023/12/19 04:06:46;;;;;;;1.08;1.08;;;4.00;99.90;;;;;;6315552;22;20189;-86
2023/12/19 04:09:13;;;;;;;0.73;0.73;;;4.10;99.90;;;;;;6320341;22;20163;-87
2023/12/19 04:11:46;;;;;;;2.10;2.00;;;4.00;99.90;;;;;;6284472;22;20190;-83
2023/12/19 04:14:14;;;;;;;0.80;0.80;;;4.20;99.90;;;;;;6331676;22;20185;-85
2023/12/19 04:16:41;;;;;;;0.82;0.82;;;4.20;99.90;;;;;;6332617;22;20169;-85
2023/12/19 04:19:09;;;;;;;2.70;2.50;;;4.20;99.90;;;;;;6320066;22;20198;-84
2023/12/19 04:24:13;;;;;;;6.30;2.65;;;4.50;99.90;;;;;;6176445;22;20313;-84
2023/12/19 04:26:42;;;;;;;1.40;1.25;;;4.50;99.90;;;;;;6265921;22;20252;-88
2023/12/19 04:29:13;;;;;;;1.40;1.30;;;4.50;99.90;;;;;;6174087;22;20173;-88
2023/12/19 04:31:43;;;;;;;1.67;1.58;;;4.70;99.90;;;;;;6110549;23;20178;-84
2023/12/19 04:36:44;;;;;;;0.70;0.70;;;4.60;99.90;;;;;;6171038;23;20193;-87
2023/12/19 04:41:56;;;;;;;0.82;0.82;;;4.80;99.90;;;;;;6294303;22;20200;-86
2023/12/19 04:44:27;;;;;;;1.77;0.77;;;4.80;99.90;;;;;;6279087;22;20237;-86
2023/12/19 04:46:58;;;;;;;0.70;0.70;;;4.90;99.90;;;;;;6253584;22;20520;-86
2023/12/19 04:49:25;;;;;;;0.85;0.85;;;4.90;99.90;;;;;;6301823;22;20182;-86
2023/12/19 04:51:52;;;;;;;1.45;1.35;;;4.80;99.90;;;;;;6166073;22;20206;-86
2023/12/19 04:54:20;;;;;;;2.25;1.48;;;4.80;99.90;;;;;;6173500;22;20221;-87
2023/12/19 04:56:48;;;;;;;0.93;0.93;;;5.00;99.90;;;;;;6165578;22;20222;-87
2023/12/19 04:59:15;;;;;;;2.03;1.92;;;4.80;99.90;;;;;;6203603;22;20194;-89
2023/12/19 05:01:42;;;;;;;1.77;1.77;;;4.70;99.90;;;;;;6292760;22;20405;-86
2023/12/19 05:04:09;;;;;;;3.80;1.50;;;4.90;99.90;;;;;;6289350;22;20183;-87
2023/12/19 05:06:36;;;;;;;0.98;0.93;;;4.80;99.90;;;;;;6318306;22;20355;-86
2023/12/19 05:09:04;;;;;;;1.80;1.38;;;4.50;99.90;;;;;;6290895;22;20205;-87
2023/12/19 05:11:31;;;;;;;0.73;0.73;;;4.50;99.90;;;;;;6320719;22;20466;-85
2023/12/19 05:14:00;;;;;;;5.55;4.00;;;4.50;99.90;;;;;;6326290;22;20174;-87
2023/12/19 05:16:28;;;;;;;2.60;2.45;;;4.30;99.90;;;;;;6322071;22;20346;-86
2023/12/19 05:18:57;;;;;;;1.15;1.15;;;4.20;99.90;;;;;;6319514;22;20179;-87
2023/12/19 05:21:24;;;;;;;1.50;1.45;;;4.00;99.90;;;;;;6321104;22;20340;-89
2023/12/19 05:23:52;;;;;;;1.15;1.15;;;4.10;99.90;;;;;;6323709;22;20174;-86
2023/12/19 05:26:22;;;;;;;0.50;0.50;;;3.90;99.90;;;;;;6301039;22;20215;-84
2023/12/19 05:28:50;;;;;;;0.50;0.50;;;3.80;99.90;;;;;;6309337;22;20174;-83
2023/12/19 05:31:19;;;;;;;1.08;1.08;;;3.80;99.90;;;;;;6323906;22;20202;-82
2023/12/19 05:33:47;;;;;;;1.02;1.02;;;3.80;99.90;;;;;;6334946;22;20170;-82
2023/12/19 05:36:17;;;;;;;1.25;1.15;;;3.70;99.90;;;;;;6309171;22;20220;-86
2023/12/19 05:38:45;;;;;;;9.25;2.55;;;3.60;99.90;;;;;;6335986;22;20193;-82
2023/12/19 05:41:16;;;;;;;5.30;1.67;;;3.60;99.90;;;;;;6336036;22;20170;-81
2023/12/19 05:43:46;;;;;;;1.75;1.50;;;3.60;99.90;;;;;;6334575;22;20166;-83
2023/12/19 05:46:15;;;;;;;0.60;0.60;;;3.60;99.90;;;;;;6335988;22;20162;-85
2023/12/19 05:48:45;;;;;;;2.78;2.58;;;3.80;99.90;;;;;;6309814;22;20162;-88
2023/12/19 05:51:14;;;;;;;1.10;1.10;;;3.60;99.90;;;;;;6309275;22;20151;-84
2023/12/19 05:53:41;;;;;;;4.25;1.52;;;3.60;99.90;;;;;;6327459;22;20178;-84
2023/12/19 05:56:13;;;;;;;0.93;0.93;;;3.50;99.90;;;;;;6290423;22;20198;-85
2023/12/19 05:58:44;;;;;;;1.27;1.25;;;3.60;99.90;;;;;;6315045;22;20158;-84
2023/12/19 06:01:11;;;;;;;1.27;1.17;;;3.50;99.90;;;;;;6317993;22;20200;-85
2023/12/19 06:03:39;;;;;;;1.05;1.05;;;3.50;99.90;;;;;;6287779;22;20224;-85
2023/12/19 06:06:07;;;;;;;1.85;1.70;;;3.40;99.90;;;;;;6315756;22;20179;-85
2023/12/19 06:08:34;;;;;;;1.30;1.30;;;3.40;99.90;;;;;;6302259;22;20518;-85
2023/12/19 06:11:02;;;;;;;2.45;2.35;;;3.60;99.90;;;;;;6317320;22;20182;-86
2023/12/19 06:13:29;;;;;;;0.60;0.60;;;3.80;99.90;;;;;;6289603;22;20213;-87
2023/12/19 06:15:58;;;;;;;1.38;1.30;;;3.70;99.90;;;;;;6316547;22;20254;-86
2023/12/19 06:18:26;;;;;;;0.90;0.90;;;3.70;99.90;;;;;;6314836;22;20406;-85
2023/12/19 06:20:59;;;;;;;1.30;1.23;;;3.70;99.90;;;;;;6315386;22;20197;-84
2023/12/19 06:23:29;;;;;;;1.73;1.60;;;3.60;99.90;;;;;;6316989;22;20494;-84
2023/12/19 06:25:58;;;;;;;2.67;2.53;;;3.70;99.90;;;;;;6314332;22;20197;-85
2023/12/19 06:28:26;;;;;;;4.18;3.97;;;3.70;99.90;;;;;;6314442;22;20178;-85
2023/12/19 06:30:53;;;;;;;0.80;0.80;;;3.70;99.90;;;;;;6312962;22;20204;-84
2023/12/19 06:33:20;;;;;;;2.08;1.98;;;3.70;99.90;;;;;;6312773;22;20181;-84
2023/12/19 06:35:51;;;;;;;1.02;1.02;;;3.60;99.90;;;;;;6313607;22;20220;-84
2023/12/19 06:38:18;;;;;;;3.78;3.53;;;3.60;99.90;;;;;;6318608;22;20235;-85
2023/12/19 06:40:46;;;;;;;1.15;1.15;;;3.70;99.90;;;;;;6314828;22;20188;-87
2023/12/19 06:43:17;;;;;;;2.05;1.95;;;3.60;99.90;;;;;;6315251;22;20186;-84
2023/12/19 06:45:45;;;;;;;3.70;3.45;;;3.50;99.90;;;;;;6313249;22;20532;-85
2023/12/19 06:48:13;;;;;;;2.20;2.10;;;3.40;99.90;;;;;;6314377;22;20215;-85
2023/12/19 06:50:41;;;;;;;1.42;1.40;;;3.50;99.90;;;;;;6316655;22;20184;-84
2023/12/19 06:53:10;;;;;;;1.10;1.10;;;3.40;99.90;;;;;;6314468;22;20201;-86
2023/12/19 08:51:35;;;;;;;1.15;1.15;;;5.90;99.90;;;;;;6195861;22;20209;-86
2023/12/19 09:18:15;;;;;;;0.50;0.50;;;7.10;99.90;;;;;;6170744;22;20407;-88
2023/12/19 09:20:47;;;;;;;0.60;0.60;;;7.30;99.90;;;;;;6230653;22;20193;-85
2023/12/19 09:23:14;;;;;;;0.60;0.60;;;7.30;99.90;;;;;;6165258;22;20296;-89
2023/12/19 09:31:01;;;;;;;1.42;1.33;;;7.50;99.90;;;;;;6209420;22;20246;-89
2023/12/19 09:36:22;;;;;;;0.60;0.60;;;7.60;99.90;;;;;;6313065;22;20193;-91
2023/12/19 09:39:00;;;;;;;0.60;0.60;;;7.90;99.90;;;;;;6293997;22;20231;-88
2023/12/19 09:41:37;;;;;;;0.60;0.60;;;7.70;99.90;;;;;;6183060;22;20551;-86
2023/12/19 09:49:22;;;;;;;0.90;0.90;;;8.20;99.90;;;;;;6168264;22;21116;-89
2023/12/19 10:02:51;;;;;;;0.70;0.70;;;8.10;99.90;;;;;;6142452;22;20182;-88
2023/12/19 10:07:59;;;;;;;1.40;1.40;;;7.90;99.90;;;;;;6201084;22;21676;-91
2023/12/19 10:10:49;;;;;;;0.60;0.60;;;8.10;99.90;;;;;;6225626;22;20188;-89
2023/12/19 10:13:37;;;;;;;0.70;0.70;;;8.20;99.90;;;;;;6157601;22;20213;-88
2023/12/19 10:18:53;;;;;;;1.00;1.00;;;8.50;99.90;;;;;;6318890;22;20203;-85
2023/12/19 10:24:11;;;;;;;1.75;1.65;;;8.50;99.90;;;;;;6316214;22;20178;-86
2023/12/19 10:29:23;;;;;;;4.95;3.72;;;8.70;99.90;;;;;;6312702;22;20200;-89
2023/12/19 10:40:14;;;;;;;2.10;2.00;;;8.70;99.90;;;;;;6313656;22;20301;-88
2023/12/19 10:45:17;;;;;;;1.42;1.25;;;8.90;99.90;;;;;;6226651;22;20514;-89
2023/12/19 10:53:08;;;;;;;1.05;1.05;;;8.90;99.90;;;;;;6221510;22;20230;-86
2023/12/19 10:55:48;;;;;;;3.45;3.30;;;9.00;99.90;;;;;;6261997;22;20193;-89
2023/12/19 10:58:20;;;;;;;5.80;1.23;;;9.00;99.90;;;;;;6328885;22;20189;-87
2023/12/19 11:00:51;;;;;;;1.38;1.38;;;8.90;99.90;;;;;;6328506;22;20167;-88
2023/12/19 11:03:51;;;;;;;2.90;2.10;;;8.90;99.90;;;;;;6312955;22;20253;-89
2023/12/19 11:06:31;;;;;;;1.33;1.33;;;8.90;99.90;;;;;;6330137;22;20188;-88
2023/12/19 11:09:05;;;;;;;1.20;1.20;;;9.00;99.90;;;;;;6274593;22;20272;-87
2023/12/19 11:11:37;;;;;;;0.95;0.95;;;9.10;99.90;;;;;;6312837;22;20388;-87
2023/12/19 11:16:54;;;;;;;1.00;1.00;;;9.10;99.90;;;;;;6235692;22;20189;-87
2023/12/19 11:19:27;;;;;;;0.80;0.80;;;9.10;99.90;;;;;;6321628;22;20240;-87
2023/12/19 11:22:30;;;;;;;2.45;2.30;;;9.20;99.90;;;;;;6303664;22;20219;-88
2023/12/19 11:25:18;;;;;;;2.40;2.30;;;9.20;99.90;;;;;;6258340;22;20207;-87
2023/12/19 11:28:06;;;;;;;1.70;1.60;;;9.30;99.90;;;;;;6327655;22;20225;-87
2023/12/19 11:30:43;;;;;;;2.20;2.10;;;9.30;99.90;;;;;;6318072;22;20198;-88
2023/12/19 11:33:28;;;;;;;1.63;1.52;;;9.30;99.90;;;;;;6300853;22;20207;-88
2023/12/19 11:35:55;;;;;;;0.70;0.70;;;9.40;99.90;;;;;;6318173;22;20254;-88
2023/12/19 11:38:26;;;;;;;1.17;1.17;;;9.40;99.90;;;;;;6295094;22;20170;-89
2023/12/19 11:40:58;;;;;;;1.27;1.27;;;9.40;97.70;;;;;;6325497;22;20619;-88
2023/12/19 11:43:28;;;;;;;0.75;0.75;;;9.40;96.00;;;;;;6298213;22;20186;-90
2023/12/19 11:46:15;;;;;;;2.35;1.88;;;9.60;95.60;;;;;;6320745;22;20201;-87
2023/12/19 11:48:47;;;;;;;0.63;0.63;;;9.60;98.60;;;;;;6322839;22;20174;-89
2023/12/19 11:51:43;;;;;;;1.20;1.20;;;9.50;93.70;;;;;;6326752;22;20171;-84
2023/12/19 11:54:13;;;;;;;1.23;1.23;;;9.50;96.00;;;;;;6298566;22;20159;-88
2023/12/19 11:56:41;;;;;;;0.70;0.70;;;9.60;93.50;;;;;;6300354;22;20268;-85
2023/12/19 11:59:11;;;;;;;0.60;0.60;;;9.50;96.70;;;;;;6325313;22;20274;-89
2023/12/19 12:01:44;;;;;;;0.70;0.70;;;9.40;93.90;;;;;;6325946;22;20438;-87
2023/12/19 12:04:11;;;;;;;1.98;1.88;;;9.60;93.50;;;;;;6322024;22;20529;-88
2023/12/19 12:06:47;;;;;;;1.92;1.83;;;9.50;92.50;;;;;;6328228;22;20177;-87
2023/12/19 12:09:20;;;;;;;1.40;1.30;;;9.70;92.40;;;;;;6329251;22;20174;-87
2023/12/19 12:11:54;;;;;;;1.33;1.23;;;9.60;94.00;;;;;;6302763;22;20181;-87
2023/12/19 12:14:22;;;;;;;1.30;1.30;;;9.60;91.80;;;;;;6302355;22;20167;-87
2023/12/19 12:16:49;;;;;;;0.80;0.80;;;9.50;92.50;;;;;;6324003;22;20191;-87
2023/12/19 12:19:21;;;;;;;0.70;0.70;;;9.60;93.30;;;;;;6320234;22;20170;-90
2023/12/19 12:21:56;;;;;;;0.60;0.60;;;9.40;97.30;;;;;;6321539;22;20319;-90
2023/12/19 12:24:26;;;;;;;0.80;0.80;;;9.50;96.70;;;;;;6295524;22;20499;-87
2023/12/19 12:27:11;;;;;;;0.60;0.60;;;9.50;93.50;;;;;;6320622;22;20173;-88
2023/12/19 12:29:41;;;;;;;0.70;0.70;;;9.50;95.00;;;;;;6321135;22;20174;-87
2023/12/19 12:32:09;;;;;;;1.55;1.45;;;9.50;93.40;;;;;;6323993;22;20218;-90
2023/12/19 12:34:36;;;;;;;0.57;0.57;;;9.50;95.10;;;;;;6296975;22;20174;-89
2023/12/19 12:37:04;;;;;;;0.80;0.80;;;9.50;94.10;;;;;;6325477;22;20205;-88
2023/12/19 12:39:33;;;;;;;1.55;1.55;;;9.40;95.00;;;;;;6230751;22;20220;-88
2023/12/19 12:42:07;;;;;;;0.60;0.60;;;9.40;93.40;;;;;;6296316;22;20523;-86
2023/12/19 12:44:35;;;;;;;0.68;0.68;;;9.60;93.00;;;;;;6298422;22;20236;-88
2023/12/19 12:47:08;;;;;;;0.85;0.85;;;9.40;93.50;;;;;;6322708;22;20178;-90
2023/12/19 12:49:35;;;;;;;1.10;1.10;;;9.40;92.60;;;;;;6320053;22;20158;-87
2023/12/19 12:52:07;;;;;;;2.60;1.30;;;9.30;91.10;;;;;;6320052;22;20173;-88
2023/12/19 12:54:34;;;;;;;1.88;1.77;;;9.40;91.60;;;;;;6291262;22;20193;-85
2023/12/19 12:57:12;;;;;;;0.90;0.90;;;9.40;90.90;;;;;;6291163;22;20200;-87
2023/12/19 12:59:39;;;;;;;1.17;1.17;;;9.40;90.60;;;;;;6319451;22;20200;-89
2023/12/19 13:02:06;;;;;;;1.98;1.05;;;9.50;90.40;;;;;;6316114;22;20240;-89
2023/12/19 13:04:34;;;;;;;0.60;0.60;;;9.30;90.90;;;;;;6320702;22;20184;-87
2023/12/19 13:07:02;;;;;;;1.25;1.25;;;9.30;92.50;;;;;;6325622;22;20166;-86
2023/12/19 13:09:30;;;;;;;1.15;1.15;;;9.30;91.20;;;;;;6276160;22;20186;-88
2023/12/19 13:12:00;;;;;;;0.60;0.60;;;9.20;90.80;;;;;;6328808;22;20177;-89
2023/12/19 13:14:28;;;;;;;0.70;0.70;;;9.20;91.70;;;;;;6286771;22;20209;-89
2023/12/19 13:16:56;;;;;;;0.80;0.80;;;9.20;92.70;;;;;;6302297;22;20201;-86
2023/12/19 13:19:25;;;;;;;0.65;0.65;;;9.20;91.10;;;;;;6303954;22;20147;-86
2023/12/19 13:21:52;;;;;;;0.90;0.90;;;9.00;90.80;;;;;;6328919;22;20181;-87
2023/12/19 13:24:22;;;;;;;0.60;0.60;;;9.20;91.30;;;;;;6298352;22;21575;-86
2023/12/19 13:26:49;;;;;;;7.93;3.60;;;9.20;92.00;;;;;;6330179;22;20173;-86
2023/12/19 13:29:21;;;;;;;0.50;0.50;;;9.10;94.60;;;;;;6328422;22;20186;-90
2023/12/19 13:31:48;;;;;;;1.35;1.25;;;9.10;92.90;;;;;;6290832;22;20166;-87
2023/12/19 13:34:16;;;;;;;0.70;0.70;;;9.20;90.20;;;;;;6319620;22;20182;-88
2023/12/19 13:36:45;;;;;;;1.95;1.85;;;9.00;90.80;;;;;;6293934;22;20198;-87
2023/12/19 13:39:12;;;;;;;0.60;0.60;;;9.00;92.30;;;;;;6320792;22;20262;-86
2023/12/19 13:41:41;;;;;;;0.60;0.60;;;8.90;94.90;;;;;;6319206;22;20794;-89
2023/12/19 13:44:09;;;;;;;0.60;0.60;;;8.90;92.50;;;;;;6320411;22;20169;-88
2023/12/19 13:46:36;;;;;;;0.60;0.60;;;8.90;92.60;;;;;;6321519;22;20190;-89
2023/12/19 13:49:08;;;;;;;0.60;0.60;;;8.80;94.30;;;;;;6321447;22;20235;-89
2023/12/19 13:51:36;;;;;;;1.30;1.30;;;8.80;94.40;;;;;;6294602;22;20241;-88
2023/12/19 13:54:05;;;;;;;3.13;2.97;;;8.80;95.30;;;;;;6330903;22;20254;-88
2023/12/19 13:56:32;;;;;;;2.85;2.45;;;8.70;94.50;;;;;;6292861;22;20198;-88
2023/12/19 13:59:01;;;;;;;2.08;1.98;;;8.60;95.30;;;;;;6289784;22;20228;-86
2023/12/19 14:01:31;;;;;;;0.73;0.73;;;8.70;92.30;;;;;;6291313;22;20174;-88
2023/12/19 14:04:01;;;;;;;0.93;0.93;;;8.70;92.40;;;;;;6322441;22;20190;-89
2023/12/19 14:06:30;;;;;;;0.63;0.63;;;8.70;94.00;;;;;;6297727;22;20251;-89
2023/12/19 14:08:58;;;;;;;3.70;1.00;;;8.60;96.60;;;;;;6294461;22;20178;-89
2023/12/19 14:11:25;;;;;;;3.47;3.17;;;8.60;93.60;;;;;;6291958;22;20181;-87
2023/12/19 14:13:53;;;;;;;1.02;1.02;;;8.70;93.30;;;;;;6293302;22;20197;-88
2023/12/19 14:16:20;;;;;;;2.60;2.40;;;8.60;99.90;;;;;;6317705;22;20244;-87
2023/12/19 14:18:52;;;;;;;1.55;1.45;;;8.60;94.80;;;;;;6319058;22;20174;-87
2023/12/19 14:21:20;;;;;;;0.55;0.55;;;8.60;99.90;;;;;;6320853;22;20207;-87
2023/12/19 14:23:48;;;;;;;0.93;0.93;;;8.50;95.70;;;;;;6318970;22;20255;-88
2023/12/19 14:26:16;;;;;;;1.50;1.33;;;8.40;98.70;;;;;;6317661;22;20345;-87
2023/12/19 14:28:44;;;;;;;1.10;1.02;;;8.40;99.80;;;;;;6316571;22;20257;-87
2023/12/19 14:31:16;;;;;;;0.50;0.50;;;8.30;98.60;;;;;;6293981;22;20235;-88
2023/12/19 14:33:45;;;;;;;0.50;0.50;;;8.30;99.90;;;;;;6292274;22;20367;-88
2023/12/19 14:36:12;;;;;;;3.25;3.05;;;8.20;99.90;;;;;;6320970;22;20691;-88
2023/12/19 14:38:41;;;;;;;1.20;1.20;;;8.20;99.90;;;;;;6321560;22;20178;-88
2023/12/19 14:41:11;;;;;;;1.13;1.08;;;8.10;99.90;;;;;;6322359;22;20487;-89
2023/12/19 14:43:40;;;;;;;0.85;0.85;;;8.10;99.90;;;;;;6289995;22;20218;-89
2023/12/19 14:46:09;;;;;;;0.88;0.88;;;8.10;99.90;;;;;;6268534;22;20195;-89
2023/12/19 14:48:48;;;;;;;0.98;0.98;;;8.10;99.90;;;;;;6198806;22;20445;-88
2023/12/19 14:51:15;;;;;;;0.70;0.70;;;8.10;99.90;;;;;;6184714;22;20543;-88
2023/12/19 14:53:42;;;;;;;0.43;0.43;;;8.10;99.90;;;;;;6301165;22;20174;-90
2023/12/19 14:56:12;;;;;;;0.60;0.60;;;8.20;99.90;;;;;;6332169;22;20198;-89
2023/12/19 14:58:43;;;;;;;0.55;0.55;;;8.10;99.90;;;;;;6192046;22;20201;-88
2023/12/19 15:01:16;;;;;;;1.27;1.25;;;8.00;99.90;;;;;;6163203;22;20490;-90
2023/12/19 15:03:44;;;;;;;1.92;1.88;;;8.00;99.90;;;;;;6337065;22;20165;-88
2023/12/19 15:06:12;;;;;;;1.50;1.45;;;8.00;99.90;;;;;;6335498;22;20161;-88
2023/12/19 15:08:39;;;;;;;0.95;0.95;;;7.90;99.90;;;;;;6357721;22;20207;-88
2023/12/19 15:11:07;;;;;;;1.25;1.25;;;7.90;99.90;;;;;;6313759;22;20212;-89
2023/12/19 15:13:34;;;;;;;2.58;2.47;;;8.00;99.90;;;;;;6302890;22;20159;-86
2023/12/19 15:16:06;;;;;;;1.15;1.15;;;8.20;99.90;;;;;;6253677;22;20194;-90
2023/12/19 15:18:33;;;;;;;0.60;0.60;;;8.20;99.90;;;;;;6157646;22;20235;-87
2023/12/19 15:21:06;;;;;;;2.20;2.08;;;8.20;99.90;;;;;;6163162;23;20230;-88
2023/12/19 15:23:33;;;;;;;0.82;0.82;;;8.30;99.90;;;;;;6165293;22;20213;-88
2023/12/19 15:26:00;;;;;;;0.60;0.60;;;8.40;99.90;;;;;;6138399;23;20184;-89
2023/12/19 15:28:28;;;;;;;0.65;0.65;;;8.30;99.90;;;;;;6138773;23;20223;-88
2023/12/19 15:30:55;;;;;;;2.15;1.27;;;8.30;99.90;;;;;;6139110;22;20174;-89
2023/12/19 15:33:24;;;;;;;0.60;0.60;;;8.30;98.10;;;;;;6143403;23;20211;-87
2023/12/19 15:35:52;;;;;;;3.03;2.78;;;8.30;97.00;;;;;;6138763;23;20185;-89
2023/12/19 15:38:19;;;;;;;0.50;0.50;;;8.30;99.90;;;;;;6140608;23;20182;-89
2023/12/19 15:40:48;;;;;;;1.60;1.50;;;8.40;99.90;;;;;;6165570;23;20180;-87
2023/12/19 15:43:15;;;;;;;1.00;1.00;;;8.50;96.90;;;;;;6139072;23;20169;-87
2023/12/19 15:46:09;;;;;;;0.80;0.80;;;8.30;99.90;;;;;;6166644;22;20182;-89
2023/12/19 15:48:46;;;;;;;1.73;1.63;;;8.30;99.80;;;;;;6162290;23;20174;-89
2023/12/19 15:51:22;;;;;;;0.60;0.60;;;8.50;95.30;;;;;;6123697;23;20213;-88
2023/12/19 15:53:49;;;;;;;0.50;0.50;;;8.30;97.10;;;;;;6147056;22;20216;-90
2023/12/19 15:59:02;;;;;;;2.63;2.42;;;8.40;97.30;;;;;;6305015;22;20190;-89
2023/12/19 16:01:31;;;;;;;1.00;1.00;;;8.40;96.80;;;;;;6324322;22;20169;-87
2023/12/19 16:04:03;;;;;;;0.70;0.70;;;8.40;97.00;;;;;;6320612;22;20162;-88
2023/12/19 16:06:32;;;;;;;0.50;0.50;;;8.40;99.90;;;;;;6322943;22;20201;-88
2023/12/19 16:09:00;;;;;;;2.47;2.15;;;8.40;98.30;;;;;;6319577;22;20174;-87
2023/12/19 16:11:31;;;;;;;0.82;0.82;;;8.50;98.70;;;;;;6293364;22;20269;-89
2023/12/19 16:14:02;;;;;;;2.17;2.08;;;8.30;99.90;;;;;;6321742;22;20151;-89
2023/12/19 16:16:34;;;;;;;0.60;0.60;;;8.40;96.10;;;;;;6293647;22;20551;-87
2023/12/19 16:19:06;;;;;;;0.70;0.70;;;8.40;99.90;;;;;;6144065;22;20212;-88
2023/12/19 16:21:35;;;;;;;0.50;0.50;;;8.40;96.30;;;;;;6163677;23;20208;-89
2023/12/19 16:24:06;;;;;;;2.22;2.13;;;8.50;99.90;;;;;;6138076;23;20173;-89
2023/12/19 16:26:35;;;;;;;0.95;0.95;;;8.50;94.50;;;;;;6296396;22;20457;-90
2023/12/19 16:29:03;;;;;;;1.15;1.15;;;8.50;98.60;;;;;;6323690;22;20202;-88
2023/12/19 16:31:31;;;;;;;0.57;0.57;;;8.30;99.60;;;;;;6321743;22;20234;-88
2023/12/19 16:34:02;;;;;;;1.45;1.42;;;8.60;95.80;;;;;;6322661;22;20186;-88
2023/12/19 16:36:30;;;;;;;0.60;0.60;;;8.40;96.60;;;;;;6325726;22;20228;-91
2023/12/19 16:39:01;;;;;;;1.17;1.10;;;8.50;99.90;;;;;;6301853;22;20188;-89
2023/12/19 16:41:28;;;;;;;1.50;1.48;;;8.50;99.90;;;;;;6330360;22;20167;-88
2023/12/19 16:43:56;;;;;;;1.02;1.02;;;8.40;98.70;;;;;;6141168;22;20216;-89
2023/12/19 16:46:23;;;;;;;0.60;0.60;;;8.50;99.60;;;;;;6146171;23;20181;-90
2023/12/19 16:49:01;;;;;;;1.05;1.05;;;8.50;99.90;;;;;;6140039;23;20173;-87
2023/12/19 16:51:29;;;;;;;0.85;0.85;;;8.40;98.90;;;;;;6140035;23;20196;-87
2023/12/19 16:53:56;;;;;;;1.10;1.00;;;8.40;99.90;;;;;;6143206;22;20195;-89
2023/12/19 16:56:34;;;;;;;1.25;1.25;;;8.40;99.90;;;;;;6173358;22;20174;-89
2023/12/19 16:59:04;;;;;;;0.60;0.60;;;8.40;99.90;;;;;;6172772;22;20190;-87
2023/12/19 17:04:10;;;;;;;0.50;0.50;;;8.40;99.90;;;;;;6268857;22;20210;-90
2023/12/19 17:06:43;;;;;;;0.50;0.50;;;8.40;99.90;;;;;;6291014;22;20175;-87
2023/12/19 17:09:25;;;;;;;;;;;;;;;;;;;;;
2023/12/19 17:12:04;;;;;;;;;;;;;;;;;;;;;
2023/12/19 17:14:37;;;;;;;0.50;0.50;;;8.30;99.90;;;;;;6292820;22;20166;-87
2023/12/19 17:17:08;;;;;;;0.98;0.98;;;8.40;99.90;;;;;;6291422;22;20195;-88
2023/12/19 17:19:47;;;;;;;1.73;1.63;;;8.50;99.90;;;;;;6268438;22;20171;-87
2023/12/19 17:22:17;;;;;;;0.50;0.50;;;8.50;99.90;;;;;;6291747;22;20171;-87